sensor_id;sensor_type;location;lat;lon;timestamp;P1;durP1;ratioP1;P2;durP2;ratioP2
76892;SDS011;65854;51.466;7.260;2023-02-22T00:00:21;72.75;;;17.77;;
76892;SDS011;65854;51.466;7.260;2023-02-22T00:02:53;73.53;;;18.15;;
76892;SDS011;65854;51.466;7.260;2023-02-22T00:05:24;72.05;;;16.85;;
76892;SDS011;65854;51.466;7.260;2023-02-22T00:07:51;71.90;;;17.45;;
76892;SDS011;65854;51.466;7.260;2023-02-22T00:10:21;79.15;;;18.23;;
76892;SDS011;65854;51.466;7.260;2023-02-22T00:12:48;70.10;;;18.05;;
76892;SDS011;65854;51.466;7.260;2023-02-22T00:15:16;73.28;;;18.08;;
76892;SDS011;65854;51.466;7.260;2023-02-22T00:17:44;80.00;;;18.52;;
76892;SDS011;65854;51.466;7.260;2023-02-22T00:20:10;80.05;;;19.83;;
76892;SDS011;65854;51.466;7.260;2023-02-22T00:22:39;84.43;;;19.38;;
76892;SDS011;65854;51.466;7.260;2023-02-22T00:25:05;87.28;;;18.58;;
76892;SDS011;65854;51.466;7.260;2023-02-22T00:27:31;79.47;;;18.17;;
76892;SDS011;65854;51.466;7.260;2023-02-22T00:29:57;90.25;;;19.17;;
76892;SDS011;65854;51.466;7.260;2023-02-22T00:32:23;84.72;;;19.17;;
76892;SDS011;65854;51.466;7.260;2023-02-22T00:34:53;99.47;;;19.07;;
76892;SDS011;65854;51.466;7.260;2023-02-22T00:37:19;96.80;;;20.05;;
76892;SDS011;65854;51.466;7.260;2023-02-22T00:39:45;120.40;;;21.30;;
76892;SDS011;65854;51.466;7.260;2023-02-22T00:42:12;100.38;;;19.63;;
76892;SDS011;65854;51.466;7.260;2023-02-22T00:44:38;100.70;;;20.70;;
76892;SDS011;65854;51.466;7.260;2023-02-22T00:47:03;97.55;;;19.52;;
76892;SDS011;65854;51.466;7.260;2023-02-22T00:49:29;101.87;;;19.57;;
76892;SDS011;65854;51.466;7.260;2023-02-22T00:51:55;90.07;;;19.85;;
76892;SDS011;65854;51.466;7.260;2023-02-22T00:54:21;104.77;;;19.97;;
76892;SDS011;65854;51.466;7.260;2023-02-22T00:56:46;167.80;;;20.92;;
76892;SDS011;65854;51.466;7.260;2023-02-22T00:59:14;114.25;;;20.02;;
76892;SDS011;65854;51.466;7.260;2023-02-22T01:01:40;95.60;;;18.73;;
76892;SDS011;65854;51.466;7.260;2023-02-22T01:04:07;127.78;;;20.58;;
76892;SDS011;65854;51.466;7.260;2023-02-22T01:06:33;136.98;;;20.00;;
76892;SDS011;65854;51.466;7.260;2023-02-22T01:08:58;188.60;;;23.40;;
76892;SDS011;65854;51.466;7.260;2023-02-22T01:11:26;138.02;;;20.02;;
76892;SDS011;65854;51.466;7.260;2023-02-22T01:13:51;145.75;;;18.17;;
76892;SDS011;65854;51.466;7.260;2023-02-22T01:16:18;175.20;;;18.43;;
76892;SDS011;65854;51.466;7.260;2023-02-22T01:18:44;209.20;;;22.95;;
76892;SDS011;65854;51.466;7.260;2023-02-22T01:21:10;194.50;;;22.83;;
76892;SDS011;65854;51.466;7.260;2023-02-22T01:23:35;154.85;;;19.67;;
76892;SDS011;65854;51.466;7.260;2023-02-22T01:26:01;236.45;;;23.95;;
76892;SDS011;65854;51.466;7.260;2023-02-22T01:28:29;202.75;;;22.25;;
76892;SDS011;65854;51.466;7.260;2023-02-22T01:30:58;265.20;;;21.75;;
76892;SDS011;65854;51.466;7.260;2023-02-22T01:33:25;172.70;;;19.52;;
76892;SDS011;65854;51.466;7.260;2023-02-22T01:35:51;159.73;;;17.73;;
76892;SDS011;65854;51.466;7.260;2023-02-22T01:38:19;188.50;;;20.02;;
76892;SDS011;65854;51.466;7.260;2023-02-22T01:40:46;252.85;;;20.55;;
76892;SDS011;65854;51.466;7.260;2023-02-22T01:43:15;197.27;;;20.58;;
76892;SDS011;65854;51.466;7.260;2023-02-22T01:45:53;204.03;;;20.13;;
76892;SDS011;65854;51.466;7.260;2023-02-22T01:54:24;260.35;;;23.35;;
76892;SDS011;65854;51.466;7.260;2023-02-22T01:56:55;174.40;;;19.85;;
76892;SDS011;65854;51.466;7.260;2023-02-22T01:59:36;207.63;;;20.93;;
76892;SDS011;65854;51.466;7.260;2023-02-22T02:02:04;191.52;;;18.65;;
76892;SDS011;65854;51.466;7.260;2023-02-22T02:04:30;180.90;;;19.90;;
76892;SDS011;65854;51.466;7.260;2023-02-22T02:06:57;215.93;;;19.88;;
76892;SDS011;65854;51.466;7.260;2023-02-22T02:09:32;104.88;;;16.50;;
76892;SDS011;65854;51.466;7.260;2023-02-22T02:12:14;179.77;;;19.17;;
76892;SDS011;65854;51.466;7.260;2023-02-22T02:14:42;264.38;;;23.40;;
76892;SDS011;65854;51.466;7.260;2023-02-22T02:17:09;227.73;;;20.42;;
76892;SDS011;65854;51.466;7.260;2023-02-22T02:24:55;200.30;;;19.30;;
76892;SDS011;65854;51.466;7.260;2023-02-22T02:30:27;219.45;;;22.50;;
76892;SDS011;65854;51.466;7.260;2023-02-22T02:33:17;272.08;;;26.30;;
76892;SDS011;65854;51.466;7.260;2023-02-22T02:36:00;271.63;;;23.67;;
76892;SDS011;65854;51.466;7.260;2023-02-22T02:38:54;253.98;;;24.17;;
76892;SDS011;65854;51.466;7.260;2023-02-22T02:47:01;421.15;;;32.20;;
76892;SDS011;65854;51.466;7.260;2023-02-22T02:49:36;352.75;;;28.95;;
76892;SDS011;65854;51.466;7.260;2023-02-22T02:52:09;387.45;;;29.88;;
76892;SDS011;65854;51.466;7.260;2023-02-22T02:54:37;207.68;;;21.02;;
76892;SDS011;65854;51.466;7.260;2023-02-22T02:57:03;272.08;;;22.73;;
76892;SDS011;65854;51.466;7.260;2023-02-22T02:59:31;355.70;;;26.40;;
76892;SDS011;65854;51.466;7.260;2023-02-22T03:04:59;280.60;;;24.20;;
76892;SDS011;65854;51.466;7.260;2023-02-22T03:10:19;238.32;;;22.35;;
76892;SDS011;65854;51.466;7.260;2023-02-22T03:13:08;215.75;;;21.45;;
76892;SDS011;65854;51.466;7.260;2023-02-22T03:22:07;360.13;;;25.55;;
76892;SDS011;65854;51.466;7.260;2023-02-22T03:27:17;302.10;;;24.23;;
76892;SDS011;65854;51.466;7.260;2023-02-22T03:30:00;271.38;;;21.85;;
76892;SDS011;65854;51.466;7.260;2023-02-22T03:32:32;206.48;;;21.05;;
76892;SDS011;65854;51.466;7.260;2023-02-22T03:35:03;219.93;;;19.40;;
76892;SDS011;65854;51.466;7.260;2023-02-22T03:37:34;232.27;;;22.10;;
76892;SDS011;65854;51.466;7.260;2023-02-22T03:40:04;186.95;;;18.90;;
76892;SDS011;65854;51.466;7.260;2023-02-22T03:42:48;191.88;;;19.25;;
76892;SDS011;65854;51.466;7.260;2023-02-22T03:45:23;239.98;;;19.52;;
76892;SDS011;65854;51.466;7.260;2023-02-22T03:47:52;221.13;;;21.52;;
76892;SDS011;65854;51.466;7.260;2023-02-22T03:50:28;225.63;;;20.90;;
76892;SDS011;65854;51.466;7.260;2023-02-22T03:53:00;202.93;;;18.75;;
76892;SDS011;65854;51.466;7.260;2023-02-22T03:55:26;169.52;;;17.98;;
76892;SDS011;65854;51.466;7.260;2023-02-22T03:57:53;154.55;;;15.05;;
76892;SDS011;65854;51.466;7.260;2023-02-22T04:00:23;193.13;;;18.42;;
76892;SDS011;65854;51.466;7.260;2023-02-22T04:02:51;168.85;;;14.73;;
76892;SDS011;65854;51.466;7.260;2023-02-22T04:05:16;160.30;;;14.13;;
76892;SDS011;65854;51.466;7.260;2023-02-22T04:07:42;195.67;;;18.83;;
76892;SDS011;65854;51.466;7.260;2023-02-22T04:10:08;122.13;;;14.35;;
76892;SDS011;65854;51.466;7.260;2023-02-22T04:12:35;143.93;;;15.43;;
76892;SDS011;65854;51.466;7.260;2023-02-22T04:15:01;168.77;;;16.95;;
76892;SDS011;65854;51.466;7.260;2023-02-22T04:17:28;212.25;;;16.92;;
76892;SDS011;65854;51.466;7.260;2023-02-22T04:19:54;144.67;;;14.50;;
76892;SDS011;65854;51.466;7.260;2023-02-22T04:22:20;130.50;;;15.98;;
76892;SDS011;65854;51.466;7.260;2023-02-22T04:24:45;143.52;;;13.98;;
76892;SDS011;65854;51.466;7.260;2023-02-22T04:27:13;143.57;;;13.07;;
76892;SDS011;65854;51.466;7.260;2023-02-22T04:29:39;178.63;;;17.17;;
76892;SDS011;65854;51.466;7.260;2023-02-22T04:32:05;158.73;;;15.80;;
76892;SDS011;65854;51.466;7.260;2023-02-22T04:34:31;190.63;;;18.35;;
76892;SDS011;65854;51.466;7.260;2023-02-22T04:36:57;113.72;;;12.65;;
76892;SDS011;65854;51.466;7.260;2023-02-22T04:39:23;125.50;;;14.37;;
76892;SDS011;65854;51.466;7.260;2023-02-22T04:41:48;178.15;;;15.70;;
76892;SDS011;65854;51.466;7.260;2023-02-22T04:44:14;144.55;;;16.45;;
76892;SDS011;65854;51.466;7.260;2023-02-22T04:46:39;200.50;;;18.03;;
76892;SDS011;65854;51.466;7.260;2023-02-22T04:49:05;128.00;;;15.43;;
76892;SDS011;65854;51.466;7.260;2023-02-22T04:51:31;209.10;;;19.53;;
76892;SDS011;65854;51.466;7.260;2023-02-22T04:53:56;150.70;;;16.57;;
76892;SDS011;65854;51.466;7.260;2023-02-22T04:56:22;148.88;;;14.52;;
76892;SDS011;65854;51.466;7.260;2023-02-22T04:58:47;202.73;;;19.07;;
76892;SDS011;65854;51.466;7.260;2023-02-22T05:01:14;92.05;;;12.85;;
76892;SDS011;65854;51.466;7.260;2023-02-22T05:03:40;83.72;;;12.20;;
76892;SDS011;65854;51.466;7.260;2023-02-22T05:06:06;101.55;;;13.10;;
76892;SDS011;65854;51.466;7.260;2023-02-22T05:08:32;194.43;;;17.92;;
76892;SDS011;65854;51.466;7.260;2023-02-22T05:10:58;192.90;;;16.97;;
76892;SDS011;65854;51.466;7.260;2023-02-22T05:13:24;120.13;;;12.52;;
76892;SDS011;65854;51.466;7.260;2023-02-22T05:15:49;258.43;;;20.43;;
76892;SDS011;65854;51.466;7.260;2023-02-22T05:18:15;196.60;;;16.38;;
76892;SDS011;65854;51.466;7.260;2023-02-22T05:20:40;113.23;;;14.70;;
76892;SDS011;65854;51.466;7.260;2023-02-22T05:23:06;112.00;;;13.87;;
76892;SDS011;65854;51.466;7.260;2023-02-22T05:25:32;123.43;;;12.48;;
76892;SDS011;65854;51.466;7.260;2023-02-22T05:27:58;81.00;;;12.30;;
76892;SDS011;65854;51.466;7.260;2023-02-22T05:30:28;67.38;;;14.60;;
76892;SDS011;65854;51.466;7.260;2023-02-22T05:32:58;96.78;;;16.02;;
76892;SDS011;65854;51.466;7.260;2023-02-22T05:35:25;139.48;;;13.18;;
76892;SDS011;65854;51.466;7.260;2023-02-22T05:37:52;159.25;;;16.05;;
76892;SDS011;65854;51.466;7.260;2023-02-22T05:40:18;79.93;;;11.47;;
76892;SDS011;65854;51.466;7.260;2023-02-22T05:42:45;98.10;;;10.85;;
76892;SDS011;65854;51.466;7.260;2023-02-22T05:45:12;124.68;;;12.45;;
76892;SDS011;65854;51.466;7.260;2023-02-22T05:47:39;86.10;;;12.47;;
76892;SDS011;65854;51.466;7.260;2023-02-22T05:50:05;210.57;;;17.98;;
76892;SDS011;65854;51.466;7.260;2023-02-22T05:52:32;112.40;;;13.45;;
76892;SDS011;65854;51.466;7.260;2023-02-22T05:54:57;94.63;;;12.27;;
76892;SDS011;65854;51.466;7.260;2023-02-22T05:57:23;111.72;;;14.30;;
76892;SDS011;65854;51.466;7.260;2023-02-22T05:59:49;77.73;;;11.70;;
76892;SDS011;65854;51.466;7.260;2023-02-22T06:02:14;88.22;;;12.05;;
76892;SDS011;65854;51.466;7.260;2023-02-22T06:04:45;106.40;;;14.55;;
76892;SDS011;65854;51.466;7.260;2023-02-22T06:07:11;113.00;;;13.00;;
76892;SDS011;65854;51.466;7.260;2023-02-22T06:09:38;126.18;;;12.35;;
76892;SDS011;65854;51.466;7.260;2023-02-22T06:12:04;97.63;;;11.93;;
76892;SDS011;65854;51.466;7.260;2023-02-22T06:14:30;130.07;;;13.20;;
76892;SDS011;65854;51.466;7.260;2023-02-22T06:16:56;77.70;;;10.80;;
76892;SDS011;65854;51.466;7.260;2023-02-22T06:19:22;163.63;;;15.80;;
76892;SDS011;65854;51.466;7.260;2023-02-22T06:21:55;144.98;;;11.75;;
76892;SDS011;65854;51.466;7.260;2023-02-22T06:24:21;226.07;;;15.23;;
76892;SDS011;65854;51.466;7.260;2023-02-22T06:27:00;182.02;;;15.48;;
76892;SDS011;65854;51.466;7.260;2023-02-22T06:29:27;182.18;;;12.52;;
76892;SDS011;65854;51.466;7.260;2023-02-22T06:31:53;104.60;;;11.33;;
76892;SDS011;65854;51.466;7.260;2023-02-22T06:34:19;198.73;;;16.42;;
76892;SDS011;65854;51.466;7.260;2023-02-22T06:36:46;218.05;;;16.83;;
76892;SDS011;65854;51.466;7.260;2023-02-22T06:39:13;146.70;;;15.10;;
76892;SDS011;65854;51.466;7.260;2023-02-22T06:41:40;139.50;;;14.00;;
76892;SDS011;65854;51.466;7.260;2023-02-22T06:44:07;217.55;;;17.90;;
76892;SDS011;65854;51.466;7.260;2023-02-22T06:46:34;222.77;;;18.40;;
76892;SDS011;65854;51.466;7.260;2023-02-22T06:49:00;165.43;;;13.63;;
76892;SDS011;65854;51.466;7.260;2023-02-22T06:51:26;183.37;;;14.37;;
76892;SDS011;65854;51.466;7.260;2023-02-22T06:53:52;140.90;;;14.68;;
76892;SDS011;65854;51.466;7.260;2023-02-22T06:56:18;192.13;;;16.70;;
76892;SDS011;65854;51.466;7.260;2023-02-22T06:58:44;129.88;;;12.48;;
76892;SDS011;65854;51.466;7.260;2023-02-22T07:01:10;138.55;;;13.15;;
76892;SDS011;65854;51.466;7.260;2023-02-22T07:03:36;74.85;;;10.27;;
76892;SDS011;65854;51.466;7.260;2023-02-22T07:06:02;176.82;;;15.57;;
76892;SDS011;65854;51.466;7.260;2023-02-22T07:08:28;130.10;;;13.07;;
76892;SDS011;65854;51.466;7.260;2023-02-22T07:10:54;107.87;;;13.53;;
76892;SDS011;65854;51.466;7.260;2023-02-22T07:13:19;66.10;;;9.40;;
76892;SDS011;65854;51.466;7.260;2023-02-22T07:15:45;150.97;;;15.70;;
76892;SDS011;65854;51.466;7.260;2023-02-22T07:18:11;149.50;;;12.68;;
76892;SDS011;65854;51.466;7.260;2023-02-22T07:20:38;140.65;;;12.63;;
76892;SDS011;65854;51.466;7.260;2023-02-22T07:23:04;100.80;;;12.10;;
76892;SDS011;65854;51.466;7.260;2023-02-22T07:25:30;149.02;;;13.57;;
76892;SDS011;65854;51.466;7.260;2023-02-22T07:27:55;98.87;;;12.03;;
76892;SDS011;65854;51.466;7.260;2023-02-22T07:32:49;102.93;;;13.55;;
76892;SDS011;65854;51.466;7.260;2023-02-22T07:35:17;97.30;;;11.68;;
76892;SDS011;65854;51.466;7.260;2023-02-22T07:37:44;66.03;;;10.27;;
76892;SDS011;65854;51.466;7.260;2023-02-22T07:40:11;103.93;;;12.18;;
76892;SDS011;65854;51.466;7.260;2023-02-22T07:45:30;222.30;;;19.13;;
76892;SDS011;65854;51.466;7.260;2023-02-22T07:47:58;82.50;;;12.75;;
76892;SDS011;65854;51.466;7.260;2023-02-22T07:50:25;62.67;;;10.23;;
76892;SDS011;65854;51.466;7.260;2023-02-22T07:52:53;152.50;;;13.38;;
76892;SDS011;65854;51.466;7.260;2023-02-22T07:55:22;108.95;;;11.32;;
76892;SDS011;65854;51.466;7.260;2023-02-22T07:57:49;91.35;;;12.20;;
76892;SDS011;65854;51.466;7.260;2023-02-22T08:00:35;69.30;;;12.02;;
76892;SDS011;65854;51.466;7.260;2023-02-22T08:03:09;41.27;;;9.00;;
76892;SDS011;65854;51.466;7.260;2023-02-22T08:05:37;34.45;;;8.93;;
76892;SDS011;65854;51.466;7.260;2023-02-22T08:08:05;29.52;;;9.52;;
76892;SDS011;65854;51.466;7.260;2023-02-22T08:10:31;24.90;;;9.18;;
76892;SDS011;65854;51.466;7.260;2023-02-22T08:12:58;22.80;;;8.45;;
76892;SDS011;65854;51.466;7.260;2023-02-22T08:15:32;25.27;;;9.30;;
76892;SDS011;65854;51.466;7.260;2023-02-22T08:17:59;31.23;;;11.60;;
76892;SDS011;65854;51.466;7.260;2023-02-22T08:20:26;28.52;;;9.95;;
76892;SDS011;65854;51.466;7.260;2023-02-22T08:22:53;24.65;;;9.55;;
76892;SDS011;65854;51.466;7.260;2023-02-22T08:25:20;21.95;;;8.90;;
76892;SDS011;65854;51.466;7.260;2023-02-22T08:27:49;24.67;;;9.00;;
76892;SDS011;65854;51.466;7.260;2023-02-22T08:30:16;24.73;;;9.35;;
76892;SDS011;65854;51.466;7.260;2023-02-22T08:32:45;23.55;;;8.82;;
76892;SDS011;65854;51.466;7.260;2023-02-22T08:35:11;21.43;;;8.40;;
76892;SDS011;65854;51.466;7.260;2023-02-22T08:37:44;22.20;;;9.00;;
76892;SDS011;65854;51.466;7.260;2023-02-22T08:40:11;21.90;;;8.88;;
76892;SDS011;65854;51.466;7.260;2023-02-22T08:42:38;21.40;;;8.13;;
76892;SDS011;65854;51.466;7.260;2023-02-22T08:45:04;19.20;;;8.27;;
76892;SDS011;65854;51.466;7.260;2023-02-22T08:47:30;20.27;;;7.90;;
76892;SDS011;65854;51.466;7.260;2023-02-22T08:49:55;19.47;;;8.10;;
76892;SDS011;65854;51.466;7.260;2023-02-22T08:52:21;19.88;;;8.63;;
76892;SDS011;65854;51.466;7.260;2023-02-22T08:54:47;20.90;;;8.20;;
76892;SDS011;65854;51.466;7.260;2023-02-22T08:57:12;21.42;;;9.13;;
76892;SDS011;65854;51.466;7.260;2023-02-22T08:59:38;20.67;;;8.57;;
76892;SDS011;65854;51.466;7.260;2023-02-22T09:02:04;23.55;;;8.77;;
76892;SDS011;65854;51.466;7.260;2023-02-22T09:04:30;22.67;;;9.10;;
76892;SDS011;65854;51.466;7.260;2023-02-22T09:06:55;20.70;;;9.13;;
76892;SDS011;65854;51.466;7.260;2023-02-22T09:09:21;21.17;;;9.17;;
76892;SDS011;65854;51.466;7.260;2023-02-22T09:11:47;19.95;;;8.43;;
76892;SDS011;65854;51.466;7.260;2023-02-22T09:14:14;23.00;;;9.15;;
76892;SDS011;65854;51.466;7.260;2023-02-22T09:16:41;20.73;;;8.23;;
76892;SDS011;65854;51.466;7.260;2023-02-22T09:19:08;22.30;;;8.82;;
76892;SDS011;65854;51.466;7.260;2023-02-22T09:21:34;19.38;;;8.93;;
76892;SDS011;65854;51.466;7.260;2023-02-22T09:23:59;18.90;;;9.17;;
76892;SDS011;65854;51.466;7.260;2023-02-22T09:26:32;23.17;;;9.25;;
76892;SDS011;65854;51.466;7.260;2023-02-22T09:29:03;21.00;;;8.73;;
76892;SDS011;65854;51.466;7.260;2023-02-22T09:31:31;22.42;;;9.30;;
76892;SDS011;65854;51.466;7.260;2023-02-22T09:33:59;21.10;;;9.70;;
76892;SDS011;65854;51.466;7.260;2023-02-22T09:36:24;20.27;;;9.43;;
76892;SDS011;65854;51.466;7.260;2023-02-22T09:38:50;23.53;;;9.43;;
76892;SDS011;65854;51.466;7.260;2023-02-22T09:41:19;21.60;;;9.48;;
76892;SDS011;65854;51.466;7.260;2023-02-22T09:44:42;22.87;;;8.73;;
76892;SDS011;65854;51.466;7.260;2023-02-22T09:47:00;23.30;;;10.05;;
76892;SDS011;65854;51.466;7.260;2023-02-22T09:49:31;25.05;;;10.80;;
76892;SDS011;65854;51.466;7.260;2023-02-22T09:54:49;20.35;;;9.27;;
76892;SDS011;65854;51.466;7.260;2023-02-22T09:57:24;21.50;;;9.37;;
76892;SDS011;65854;51.466;7.260;2023-02-22T10:00:06;23.85;;;9.00;;
76892;SDS011;65854;51.466;7.260;2023-02-22T10:03:23;18.98;;;8.48;;
76892;SDS011;65854;51.466;7.260;2023-02-22T10:06:00;18.98;;;8.38;;
76892;SDS011;65854;51.466;7.260;2023-02-22T10:08:34;17.95;;;8.40;;
76892;SDS011;65854;51.466;7.260;2023-02-22T10:11:11;19.00;;;8.47;;
76892;SDS011;65854;51.466;7.260;2023-02-22T10:14:14;18.67;;;7.68;;
76892;SDS011;65854;51.466;7.260;2023-02-22T10:17:28;19.70;;;8.13;;
76892;SDS011;65854;51.466;7.260;2023-02-22T10:25:39;16.03;;;7.17;;
76892;SDS011;65854;51.466;7.260;2023-02-22T10:30:44;23.83;;;9.05;;
76892;SDS011;65854;51.466;7.260;2023-02-22T10:33:21;24.70;;;8.32;;
76892;SDS011;65854;51.466;7.260;2023-02-22T10:35:51;17.23;;;6.68;;
76892;SDS011;65854;51.466;7.260;2023-02-22T10:38:20;17.20;;;7.43;;
76892;SDS011;65854;51.466;7.260;2023-02-22T10:40:49;19.67;;;7.65;;
76892;SDS011;65854;51.466;7.260;2023-02-22T10:43:26;13.55;;;5.75;;
76892;SDS011;65854;51.466;7.260;2023-02-22T10:45:52;13.82;;;5.45;;
76892;SDS011;65854;51.466;7.260;2023-02-22T10:48:22;13.55;;;5.40;;
76892;SDS011;65854;51.466;7.260;2023-02-22T10:50:50;14.38;;;4.93;;
76892;SDS011;65854;51.466;7.260;2023-02-22T10:53:18;12.02;;;4.63;;
76892;SDS011;65854;51.466;7.260;2023-02-22T10:58:53;9.90;;;4.25;;
76892;SDS011;65854;51.466;7.260;2023-02-22T11:01:23;11.65;;;3.92;;
76892;SDS011;65854;51.466;7.260;2023-02-22T11:06:37;12.63;;;3.90;;
76892;SDS011;65854;51.466;7.260;2023-02-22T11:09:09;13.75;;;3.80;;
76892;SDS011;65854;51.466;7.260;2023-02-22T11:11:42;11.63;;;3.85;;
76892;SDS011;65854;51.466;7.260;2023-02-22T11:14:10;11.43;;;3.47;;
76892;SDS011;65854;51.466;7.260;2023-02-22T11:16:38;10.52;;;3.47;;
76892;SDS011;65854;51.466;7.260;2023-02-22T11:21:39;13.50;;;3.50;;
76892;SDS011;65854;51.466;7.260;2023-02-22T11:24:09;9.35;;;3.20;;
76892;SDS011;65854;51.466;7.260;2023-02-22T11:26:39;10.45;;;3.38;;
76892;SDS011;65854;51.466;7.260;2023-02-22T11:29:18;10.00;;;3.30;;
76892;SDS011;65854;51.466;7.260;2023-02-22T11:31:48;8.50;;;3.10;;
76892;SDS011;65854;51.466;7.260;2023-02-22T11:34:25;9.60;;;3.28;;
76892;SDS011;65854;51.466;7.260;2023-02-22T11:37:14;8.98;;;3.25;;
76892;SDS011;65854;51.466;7.260;2023-02-22T11:42:43;8.93;;;3.40;;
76892;SDS011;65854;51.466;7.260;2023-02-22T11:45:12;13.85;;;5.53;;
76892;SDS011;65854;51.466;7.260;2023-02-22T11:48:00;13.13;;;4.32;;
76892;SDS011;65854;51.466;7.260;2023-02-22T11:50:32;8.63;;;3.30;;
76892;SDS011;65854;51.466;7.260;2023-02-22T11:53:24;10.50;;;3.65;;
76892;SDS011;65854;51.466;7.260;2023-02-22T12:04:32;10.43;;;3.63;;
76892;SDS011;65854;51.466;7.260;2023-02-22T12:07:12;11.85;;;4.05;;
76892;SDS011;65854;51.466;7.260;2023-02-22T12:20:28;10.55;;;3.70;;
76892;SDS011;65854;51.466;7.260;2023-02-22T12:23:04;8.85;;;3.80;;
76892;SDS011;65854;51.466;7.260;2023-02-22T12:25:46;10.68;;;3.90;;
76892;SDS011;65854;51.466;7.260;2023-02-22T12:28:24;13.93;;;4.60;;
76892;SDS011;65854;51.466;7.260;2023-02-22T12:31:12;9.73;;;3.95;;
76892;SDS011;65854;51.466;7.260;2023-02-22T12:36:52;8.95;;;3.55;;
76892;SDS011;65854;51.466;7.260;2023-02-22T12:42:12;12.98;;;3.78;;
76892;SDS011;65854;51.466;7.260;2023-02-22T12:44:41;10.73;;;3.42;;
76892;SDS011;65854;51.466;7.260;2023-02-22T12:47:15;7.68;;;3.10;;
76892;SDS011;65854;51.466;7.260;2023-02-22T12:49:54;8.73;;;3.40;;
76892;SDS011;65854;51.466;7.260;2023-02-22T12:52:52;11.07;;;5.80;;
76892;SDS011;65854;51.466;7.260;2023-02-22T12:58:12;8.70;;;3.33;;
76892;SDS011;65854;51.466;7.260;2023-02-22T13:00:49;7.63;;;3.22;;
76892;SDS011;65854;51.466;7.260;2023-02-22T13:03:42;9.80;;;3.28;;
76892;SDS011;65854;51.466;7.260;2023-02-22T13:08:45;8.20;;;2.85;;
76892;SDS011;65854;51.466;7.260;2023-02-22T13:11:41;8.77;;;3.30;;
76892;SDS011;65854;51.466;7.260;2023-02-22T13:17:28;8.88;;;3.47;;
76892;SDS011;65854;51.466;7.260;2023-02-22T13:20:08;8.93;;;3.33;;
76892;SDS011;65854;51.466;7.260;2023-02-22T13:23:03;8.93;;;3.63;;
76892;SDS011;65854;51.466;7.260;2023-02-22T13:29:29;11.23;;;3.60;;
76892;SDS011;65854;51.466;7.260;2023-02-22T13:31:41;10.27;;;3.60;;
76892;SDS011;65854;51.466;7.260;2023-02-22T13:36:58;7.93;;;2.92;;
76892;SDS011;65854;51.466;7.260;2023-02-22T13:50:28;9.13;;;3.15;;
76892;SDS011;65854;51.466;7.260;2023-02-22T13:53:09;9.55;;;3.05;;
76892;SDS011;65854;51.466;7.260;2023-02-22T13:55:39;9.27;;;3.05;;
76892;SDS011;65854;51.466;7.260;2023-02-22T13:58:09;7.65;;;3.17;;
76892;SDS011;65854;51.466;7.260;2023-02-22T14:00:41;8.50;;;3.10;;
76892;SDS011;65854;51.466;7.260;2023-02-22T14:03:27;7.80;;;2.90;;
76892;SDS011;65854;51.466;7.260;2023-02-22T14:06:04;8.48;;;2.90;;
76892;SDS011;65854;51.466;7.260;2023-02-22T14:11:43;8.82;;;3.40;;
76892;SDS011;65854;51.466;7.260;2023-02-22T14:16:24;11.10;;;3.83;;
76892;SDS011;65854;51.466;7.260;2023-02-22T14:19:01;10.43;;;3.33;;
76892;SDS011;65854;51.466;7.260;2023-02-22T14:21:33;8.35;;;3.10;;
76892;SDS011;65854;51.466;7.260;2023-02-22T14:24:06;8.45;;;3.17;;
76892;SDS011;65854;51.466;7.260;2023-02-22T14:26:37;9.82;;;2.97;;
76892;SDS011;65854;51.466;7.260;2023-02-22T14:31:57;8.63;;;3.03;;
76892;SDS011;65854;51.466;7.260;2023-02-22T14:34:19;10.05;;;3.50;;
76892;SDS011;65854;51.466;7.260;2023-02-22T14:37:07;9.30;;;3.53;;
76892;SDS011;65854;51.466;7.260;2023-02-22T14:39:58;13.15;;;3.67;;
76892;SDS011;65854;51.466;7.260;2023-02-22T14:47:49;11.20;;;3.53;;
76892;SDS011;65854;51.466;7.260;2023-02-22T14:53:21;10.00;;;3.45;;
76892;SDS011;65854;51.466;7.260;2023-02-22T14:55:59;9.07;;;3.30;;
76892;SDS011;65854;51.466;7.260;2023-02-22T15:06:50;15.63;;;3.40;;
76892;SDS011;65854;51.466;7.260;2023-02-22T15:09:19;12.27;;;3.83;;
76892;SDS011;65854;51.466;7.260;2023-02-22T15:11:50;11.65;;;3.53;;
76892;SDS011;65854;51.466;7.260;2023-02-22T15:14:37;9.35;;;3.38;;
76892;SDS011;65854;51.466;7.260;2023-02-22T15:17:08;10.38;;;3.65;;
76892;SDS011;65854;51.466;7.260;2023-02-22T15:19:44;10.30;;;4.25;;
76892;SDS011;65854;51.466;7.260;2023-02-22T15:22:21;12.10;;;3.77;;
76892;SDS011;65854;51.466;7.260;2023-02-22T15:24:57;9.75;;;3.70;;
76892;SDS011;65854;51.466;7.260;2023-02-22T15:27:25;13.30;;;4.68;;
76892;SDS011;65854;51.466;7.260;2023-02-22T15:29:56;12.48;;;4.47;;
76892;SDS011;65854;51.466;7.260;2023-02-22T15:32:29;11.45;;;4.57;;
76892;SDS011;65854;51.466;7.260;2023-02-22T15:35:31;11.90;;;4.13;;
76892;SDS011;65854;51.466;7.260;2023-02-22T15:38:01;10.18;;;4.43;;
76892;SDS011;65854;51.466;7.260;2023-02-22T15:40:31;12.63;;;4.93;;
76892;SDS011;65854;51.466;7.260;2023-02-22T15:42:58;11.63;;;4.80;;
76892;SDS011;65854;51.466;7.260;2023-02-22T15:45:32;12.30;;;4.78;;
76892;SDS011;65854;51.466;7.260;2023-02-22T15:47:58;11.13;;;4.87;;
76892;SDS011;65854;51.466;7.260;2023-02-22T15:50:28;10.88;;;4.97;;
76892;SDS011;65854;51.466;7.260;2023-02-22T15:55:29;12.50;;;4.70;;
76892;SDS011;65854;51.466;7.260;2023-02-22T15:58:06;12.93;;;4.90;;
76892;SDS011;65854;51.466;7.260;2023-02-22T16:00:57;11.27;;;4.68;;
76892;SDS011;65854;51.466;7.260;2023-02-22T16:03:23;13.75;;;5.60;;
76892;SDS011;65854;51.466;7.260;2023-02-22T16:05:57;15.13;;;5.13;;
76892;SDS011;65854;51.466;7.260;2023-02-22T16:11:09;10.63;;;4.75;;
76892;SDS011;65854;51.466;7.260;2023-02-22T16:13:42;13.45;;;5.35;;
76892;SDS011;65854;51.466;7.260;2023-02-22T16:18:45;14.63;;;5.40;;
76892;SDS011;65854;51.466;7.260;2023-02-22T16:21:12;12.95;;;5.88;;
76892;SDS011;65854;51.466;7.260;2023-02-22T16:23:50;11.80;;;5.47;;
76892;SDS011;65854;51.466;7.260;2023-02-22T16:31:21;12.07;;;5.90;;
76892;SDS011;65854;51.466;7.260;2023-02-22T16:33:49;14.35;;;5.82;;
76892;SDS011;65854;51.466;7.260;2023-02-22T16:36:17;13.63;;;6.55;;
76892;SDS011;65854;51.466;7.260;2023-02-22T16:38:44;11.57;;;6.15;;
76892;SDS011;65854;51.466;7.260;2023-02-22T16:41:12;15.50;;;6.60;;
76892;SDS011;65854;51.466;7.260;2023-02-22T16:43:46;14.30;;;6.40;;
76892;SDS011;65854;51.466;7.260;2023-02-22T16:46:15;16.02;;;6.55;;
76892;SDS011;65854;51.466;7.260;2023-02-22T16:48:43;15.82;;;6.50;;
76892;SDS011;65854;51.466;7.260;2023-02-22T16:51:18;15.00;;;6.90;;
76892;SDS011;65854;51.466;7.260;2023-02-22T16:53:49;12.90;;;6.38;;
76892;SDS011;65854;51.466;7.260;2023-02-22T16:56:20;16.47;;;6.43;;
76892;SDS011;65854;51.466;7.260;2023-02-22T16:58:51;14.85;;;6.30;;
76892;SDS011;65854;51.466;7.260;2023-02-22T17:01:17;15.98;;;7.10;;
76892;SDS011;65854;51.466;7.260;2023-02-22T17:03:44;17.80;;;6.50;;
76892;SDS011;65854;51.466;7.260;2023-02-22T17:06:10;15.02;;;6.70;;
76892;SDS011;65854;51.466;7.260;2023-02-22T17:08:37;15.97;;;6.43;;
76892;SDS011;65854;51.466;7.260;2023-02-22T17:11:04;16.33;;;6.60;;
76892;SDS011;65854;51.466;7.260;2023-02-22T17:13:30;14.70;;;6.57;;